createdAt,value
2023-11-25T00:00:59.408Z,7.47
2023-11-25T00:03:30.808Z,7.13
2023-11-25T00:06:00.762Z,7.25
2023-11-25T00:08:30.951Z,7.05
2023-11-25T00:11:00.882Z,6.30
2023-11-25T00:13:30.586Z,8.18
2023-11-25T00:16:00.501Z,6.68
2023-11-25T00:18:31.963Z,7.75
2023-11-25T00:21:02.091Z,5.90
2023-11-25T00:23:32.090Z,7.50
2023-11-25T00:26:02.129Z,7.03
2023-11-25T00:28:33.723Z,7.88
2023-11-25T00:31:04.051Z,5.28
2023-11-25T00:33:35.335Z,10.00
2023-11-25T00:36:05.913Z,9.65
2023-11-25T00:38:38.221Z,8.82
2023-11-25T00:41:08.472Z,6.25
2023-11-25T00:46:10.116Z,7.50
2023-11-25T00:48:40.093Z,7.70
2023-11-25T00:51:10.162Z,9.88
2023-11-25T00:53:40.164Z,9.52
2023-11-25T00:56:10.590Z,11.60
2023-11-25T00:58:40.698Z,10.60
2023-11-25T01:01:12.168Z,8.52
2023-11-25T01:03:42.276Z,11.00
2023-11-25T01:06:12.981Z,13.75
2023-11-25T01:08:43.030Z,10.82
2023-11-25T01:11:12.917Z,8.25
2023-11-25T01:13:42.946Z,9.23
2023-11-25T01:16:20.950Z,10.45
2023-11-25T01:18:51.052Z,7.85
2023-11-25T01:21:21.004Z,6.80
2023-11-25T01:23:50.702Z,11.45
2023-11-25T01:26:20.532Z,8.57
2023-11-25T01:28:50.573Z,8.38
2023-11-25T01:31:22.113Z,9.63
2023-11-25T01:33:52.157Z,7.22
2023-11-25T01:36:23.218Z,13.45
2023-11-25T01:38:53.146Z,10.43
2023-11-25T01:41:22.972Z,11.05
2023-11-25T01:43:53.215Z,8.68
2023-11-25T01:46:39.938Z,9.75
2023-11-25T01:49:13.770Z,10.57
2023-11-25T01:51:48.740Z,8.05
2023-11-25T01:54:20.562Z,7.38
2023-11-25T01:56:55.669Z,6.70
2023-11-25T01:59:28.395Z,10.43
2023-11-25T02:04:30.056Z,7.70
2023-11-25T02:07:00.010Z,8.88
2023-11-25T02:09:29.899Z,8.05
2023-11-25T02:12:01.213Z,7.80
2023-11-25T02:14:31.293Z,9.57
2023-11-25T02:17:02.928Z,8.60
2023-11-25T02:19:33.249Z,8.02
2023-11-25T02:22:08.095Z,7.45
2023-11-25T02:24:39.541Z,6.80
2023-11-25T02:27:10.749Z,10.07
2023-11-25T02:29:40.693Z,6.78
2023-11-25T02:32:11.189Z,7.63
2023-11-25T02:34:41.432Z,9.50
2023-11-25T02:37:11.281Z,8.27
2023-11-25T02:39:42.722Z,7.43
2023-11-25T02:42:14.026Z,5.40
2023-11-25T02:44:44.004Z,9.32
2023-11-25T02:47:15.165Z,6.28
2023-11-25T02:49:45.536Z,7.18
2023-11-25T02:52:15.402Z,8.40
2023-11-25T02:54:46.752Z,8.10
2023-11-25T02:57:20.617Z,9.57
2023-11-25T02:59:50.519Z,8.80
2023-11-25T03:02:20.606Z,9.05
2023-11-25T03:04:50.938Z,7.45
2023-11-25T03:07:21.472Z,5.40
2023-11-25T03:09:52.823Z,11.70
2023-11-25T03:12:24.066Z,9.60
2023-11-25T03:14:54.021Z,7.53
2023-11-25T03:17:24.015Z,4.88
2023-11-25T03:19:54.041Z,10.18
2023-11-25T03:22:24.505Z,5.53
2023-11-25T03:24:55.770Z,6.07
2023-11-25T03:27:25.644Z,6.65
2023-11-25T03:29:55.949Z,7.80
2023-11-25T03:32:27.123Z,6.63
2023-11-25T03:35:01.070Z,8.80
2023-11-25T03:37:32.281Z,5.90
2023-11-25T03:40:06.064Z,7.88
2023-11-25T03:42:36.333Z,6.47
2023-11-25T03:47:11.703Z,5.32
2023-11-25T03:49:41.890Z,5.78
2023-11-25T03:52:12.294Z,4.70
2023-11-25T03:54:42.377Z,7.88
2023-11-25T03:57:12.263Z,7.80
2023-11-25T03:59:42.432Z,10.77
2023-11-25T04:02:14.210Z,4.97
2023-11-25T04:04:44.324Z,4.23
2023-11-25T04:07:14.281Z,3.92
2023-11-25T04:09:44.188Z,5.80
2023-11-25T04:12:14.002Z,4.88
2023-11-25T04:14:43.931Z,4.20
2023-11-25T04:17:15.311Z,4.63
2023-11-25T04:19:45.818Z,5.10
2023-11-25T04:22:15.722Z,8.23
2023-11-25T04:24:45.727Z,6.50
2023-11-25T04:27:15.806Z,3.90
2023-11-25T04:29:45.716Z,4.53
2023-11-25T04:32:17.181Z,5.38
2023-11-25T04:34:47.288Z,6.38
2023-11-25T04:37:17.375Z,5.97
2023-11-25T04:39:47.400Z,22.15
2023-11-25T04:42:17.285Z,10.10
2023-11-25T04:44:47.328Z,11.00
2023-11-25T04:47:18.850Z,15.35
2023-11-25T04:49:48.827Z,10.13
2023-11-25T04:52:19.609Z,8.35
2023-11-25T04:54:50.452Z,6.32
2023-11-25T04:57:20.474Z,9.38
2023-11-25T04:59:50.462Z,11.10
2023-11-25T05:02:22.045Z,8.82
2023-11-25T05:04:52.068Z,8.32
2023-11-25T05:07:23.129Z,7.80
2023-11-25T05:09:53.683Z,13.45
2023-11-25T05:12:23.622Z,14.88
2023-11-25T05:14:53.481Z,12.65
2023-11-25T05:17:30.515Z,33.67
2023-11-25T05:20:00.561Z,127.93
2023-11-25T05:22:30.744Z,89.65
2023-11-25T05:25:00.711Z,16.25
2023-11-25T05:27:31.028Z,12.73
2023-11-25T05:30:02.446Z,14.60
2023-11-25T05:32:33.873Z,11.05
2023-11-25T05:35:03.889Z,11.20
2023-11-25T05:37:33.764Z,26.20
2023-11-25T05:40:07.305Z,14.57
2023-11-25T05:42:39.862Z,18.65
2023-11-25T05:45:12.082Z,15.57
2023-11-25T05:47:43.591Z,13.43
2023-11-25T05:50:13.864Z,15.15
2023-11-25T05:52:43.832Z,12.27
2023-11-25T05:55:13.919Z,15.35
2023-11-25T05:57:45.898Z,19.83
2023-11-25T06:00:17.189Z,27.13
2023-11-25T06:02:48.810Z,20.35
2023-11-25T06:05:19.322Z,27.67
2023-11-25T06:07:49.287Z,69.80
2023-11-25T06:10:20.545Z,62.25
2023-11-25T06:12:50.661Z,168.27
2023-11-25T06:15:23.702Z,105.97
2023-11-25T06:17:55.214Z,115.55
2023-11-25T06:20:26.853Z,92.13
2023-11-25T06:22:56.930Z,91.07
2023-11-25T06:25:27.815Z,78.00
2023-11-25T06:27:58.858Z,80.43
2023-11-25T06:30:28.825Z,104.45
2023-11-25T06:33:00.389Z,90.72
2023-11-25T06:35:30.542Z,92.47
2023-11-25T06:38:01.334Z,93.70
2023-11-25T06:40:31.258Z,92.70
2023-11-25T06:43:01.922Z,82.63
2023-11-25T06:47:10.126Z,38.58
2023-11-25T06:49:40.197Z,61.33
2023-11-25T06:52:10.349Z,61.45
2023-11-25T06:54:40.531Z,95.75
2023-11-25T06:57:10.365Z,150.05
2023-11-25T06:59:46.940Z,117.15
2023-11-25T07:02:20.069Z,93.25
2023-11-25T07:04:51.033Z,37.67
2023-11-25T07:07:22.404Z,68.30
2023-11-25T07:09:52.362Z,100.25
2023-11-25T07:12:22.258Z,81.50
2023-11-25T07:14:52.348Z,89.25
2023-11-25T07:17:23.828Z,127.32
2023-11-25T07:19:53.788Z,96.85
2023-11-25T07:22:23.640Z,84.32
2023-11-25T07:24:53.842Z,98.78
2023-11-25T07:27:27.732Z,87.28
2023-11-25T07:30:02.571Z,77.35
2023-11-25T07:32:33.983Z,58.83
2023-11-25T07:35:07.698Z,54.58
2023-11-25T07:37:37.668Z,48.70
2023-11-25T07:40:11.378Z,64.07
2023-11-25T07:42:41.300Z,71.18
2023-11-25T07:45:12.736Z,59.85
2023-11-25T07:47:45.593Z,39.95
2023-11-25T07:50:17.730Z,45.47
2023-11-25T07:52:47.716Z,36.83
2023-11-25T07:55:18.308Z,33.97
2023-11-25T09:47:13.283Z,2.88
2023-11-25T09:49:42.981Z,3.17
2023-11-25T09:52:16.728Z,3.33
2023-11-25T09:54:47.162Z,2.53
2023-11-25T09:57:20.469Z,4.97
2023-11-25T09:59:50.669Z,2.55
2023-11-25T10:02:23.270Z,6.15
2023-11-25T10:04:54.323Z,3.45
2023-11-25T10:07:24.680Z,4.20
2023-11-25T10:09:54.171Z,2.28
2023-11-25T10:12:24.699Z,2.92
2023-11-25T10:14:54.693Z,4.28
2023-11-25T10:17:27.503Z,4.93
2023-11-25T10:22:51.292Z,3.33
2023-11-25T10:25:21.613Z,2.30
2023-11-25T10:27:52.757Z,9.73
2023-11-25T10:30:22.839Z,10.93
2023-11-25T10:32:58.449Z,7.57
2023-11-25T10:35:28.130Z,10.07
2023-11-25T10:37:57.976Z,8.57
2023-11-25T10:40:28.825Z,9.73
2023-11-25T10:43:03.538Z,5.65
2023-11-25T10:45:34.573Z,7.70
2023-11-25T10:48:06.625Z,18.30
2023-11-25T10:50:36.601Z,6.80
2023-11-25T10:53:08.455Z,9.10
2023-11-25T10:55:40.887Z,4.07
2023-11-25T10:58:12.876Z,4.10
2023-11-25T11:00:42.384Z,8.70
2023-11-25T11:03:15.920Z,6.15
2023-11-25T11:05:52.516Z,6.45
2023-11-25T11:08:27.297Z,11.20
2023-11-25T11:11:00.532Z,4.45
2023-11-25T11:13:36.456Z,7.57
2023-11-25T11:16:12.272Z,6.90
2023-11-25T11:18:46.062Z,3.50
2023-11-25T11:21:18.384Z,4.75
2023-11-25T11:23:48.564Z,8.00
2023-11-25T11:26:39.293Z,8.10
2023-11-25T11:29:20.555Z,6.60
2023-11-25T11:32:00.277Z,3.67
2023-11-25T11:34:34.067Z,3.00
2023-11-25T11:37:04.717Z,3.97
2023-11-25T11:39:42.260Z,10.13
2023-11-25T11:42:35.937Z,13.32
2023-11-25T11:45:30.092Z,17.10
2023-11-25T11:48:01.870Z,12.93
2023-11-25T11:50:34.464Z,13.35
2023-11-25T11:53:16.776Z,12.32
2023-11-25T11:55:53.767Z,11.27
2023-11-25T11:58:25.298Z,7.78
2023-11-25T12:01:09.677Z,7.70
2023-11-25T12:03:40.992Z,8.50
2023-11-25T12:06:12.803Z,9.68
2023-11-25T12:08:42.274Z,9.98
2023-11-25T12:11:13.913Z,10.23
2023-11-25T12:13:43.677Z,9.40
2023-11-25T12:16:13.568Z,11.00
2023-11-25T12:18:43.115Z,5.65
2023-11-25T12:21:14.155Z,2.78
2023-11-25T12:23:49.832Z,2.13
2023-11-25T12:26:26.597Z,2.92
2023-11-25T12:28:56.457Z,7.32
2023-11-25T12:31:26.616Z,72.03
2023-11-25T12:33:56.856Z,41.17
2023-11-25T12:36:28.650Z,73.03
2023-11-25T12:38:58.109Z,44.13
2023-11-25T12:41:28.183Z,65.68
2023-11-25T12:47:13.511Z,70.97
2023-11-25T12:49:42.974Z,13.60
2023-11-25T12:52:24.602Z,37.42
2023-11-25T12:54:54.385Z,147.20
2023-11-25T12:57:30.750Z,20.85
2023-11-25T13:00:01.940Z,43.13
2023-11-25T13:02:35.244Z,17.75
2023-11-25T13:05:05.656Z,2.55
2023-11-25T13:07:36.946Z,23.90
2023-11-25T13:10:08.580Z,9.70
2023-11-25T13:12:38.513Z,7.10
2023-11-25T13:15:10.550Z,5.00
2023-11-25T13:17:41.780Z,1.10
2023-11-25T13:20:12.983Z,4.78
2023-11-25T13:22:42.484Z,2.00
2023-11-25T13:38:09.972Z,0.85
2023-11-25T13:40:40.106Z,0.93
2023-11-25T13:43:11.378Z,0.38
2023-11-25T13:45:40.799Z,0.40
2023-11-25T13:48:11.935Z,0.20
2023-11-25T13:50:41.973Z,0.55
2023-11-25T13:53:14.595Z,1.23
2023-11-25T13:58:17.368Z,0.30
2023-11-25T14:00:47.017Z,1.50
2023-11-25T14:03:17.521Z,1.10
2023-11-25T14:05:47.637Z,0.50
2023-11-25T14:08:20.898Z,0.20
2023-11-25T14:10:50.461Z,0.93
2023-11-25T14:13:20.159Z,0.90
2023-11-25T14:15:50.111Z,0.60
2023-11-25T14:18:19.633Z,1.38
2023-11-25T14:20:49.563Z,0.50
2023-11-25T14:23:20.348Z,0.38
2023-11-25T14:25:51.822Z,0.43
2023-11-25T14:28:23.452Z,0.10
2023-11-25T14:30:52.959Z,0.52
2023-11-25T14:33:22.601Z,0.40
2023-11-25T14:35:52.104Z,0.15
2023-11-25T14:38:24.046Z,0.55
2023-11-25T14:40:54.378Z,0.10
2023-11-25T14:43:24.529Z,1.25
2023-11-25T14:45:54.136Z,1.23
2023-11-25T14:48:24.483Z,0.00
2023-11-25T14:50:54.997Z,0.10
2023-11-25T14:53:25.871Z,1.83
2023-11-25T14:55:55.761Z,0.30
2023-11-25T14:58:26.498Z,0.45
2023-11-25T15:00:56.644Z,0.22
2023-11-25T15:03:28.773Z,0.10
2023-11-25T15:05:58.359Z,0.10
2023-11-25T15:08:29.307Z,0.08
2023-11-25T15:10:59.938Z,0.08
2023-11-25T15:13:29.346Z,0.22
2023-11-25T15:15:58.803Z,4.78
2023-11-25T15:18:29.408Z,3.83
2023-11-25T15:21:02.792Z,0.10
2023-11-25T15:23:33.701Z,0.68
2023-11-25T15:26:03.434Z,0.20
2023-11-25T15:28:33.062Z,1.90
2023-11-25T15:31:02.578Z,0.08
2023-11-25T15:33:32.345Z,0.30
2023-11-25T15:36:01.903Z,0.17
2023-11-25T15:38:32.894Z,0.15
2023-11-25T15:41:03.760Z,1.55
2023-11-25T15:47:10.079Z,0.13
2023-11-25T15:49:39.785Z,1.25
2023-11-25T15:52:10.192Z,0.50
2023-11-25T15:54:40.556Z,0.52
2023-11-25T15:57:10.101Z,12.30
2023-11-25T15:59:39.496Z,6.43
2023-11-25T16:02:10.865Z,22.15
2023-11-25T16:04:41.309Z,6.13
2023-11-25T16:07:14.482Z,5.47
2023-11-25T16:09:45.598Z,0.35
2023-11-25T16:12:16.427Z,0.28
2023-11-25T16:14:45.842Z,0.10
2023-11-25T16:17:17.430Z,0.88
2023-11-25T16:19:47.733Z,2.15
2023-11-25T16:22:17.416Z,1.48
2023-11-25T16:24:46.863Z,0.88
2023-11-25T16:27:19.397Z,0.20
2023-11-25T16:29:51.613Z,0.10
2023-11-25T16:32:23.632Z,0.20
2023-11-25T16:34:53.255Z,0.17
2023-11-25T16:37:23.716Z,1.65
2023-11-25T16:39:53.324Z,0.28
2023-11-25T16:42:22.815Z,0.68
2023-11-25T16:44:52.360Z,2.40
2023-11-25T16:47:23.379Z,0.00
2023-11-25T16:49:53.930Z,0.30
2023-11-25T16:52:23.578Z,0.22
2023-11-25T16:54:53.405Z,0.10
2023-11-25T16:57:22.786Z,0.00
2023-11-25T16:59:52.385Z,0.70
2023-11-25T17:02:23.352Z,0.00
2023-11-25T17:04:52.920Z,0.10
2023-11-25T17:07:22.435Z,0.08
2023-11-25T17:09:52.236Z,0.22
2023-11-25T17:12:21.615Z,0.43
2023-11-25T17:14:51.039Z,0.22
2023-11-25T17:17:22.414Z,0.00
2023-11-25T17:19:51.839Z,0.13
2023-11-25T17:22:21.441Z,0.00
2023-11-25T17:24:50.803Z,2.50
2023-11-25T17:27:21.513Z,2.47
2023-11-25T17:29:50.822Z,0.90
2023-11-25T17:32:23.240Z,0.28
2023-11-25T17:34:52.737Z,4.95
2023-11-25T17:37:22.240Z,0.00
2023-11-25T17:39:51.916Z,0.00
2023-11-25T17:42:21.962Z,0.00
2023-11-25T17:44:51.738Z,0.00
2023-11-25T17:47:23.019Z,0.00
2023-11-25T17:49:52.889Z,3.45
2023-11-25T17:52:23.401Z,0.00
2023-11-25T17:54:52.753Z,0.05
2023-11-25T17:57:22.474Z,0.90
2023-11-25T17:59:51.805Z,0.10
2023-11-25T18:02:24.186Z,0.10
2023-11-25T18:04:54.495Z,0.05
2023-11-25T18:07:24.116Z,0.20
2023-11-25T18:09:53.512Z,0.08
2023-11-25T18:12:23.024Z,0.43
2023-11-25T18:14:52.622Z,0.57
2023-11-25T18:17:23.769Z,0.00
2023-11-25T18:19:53.319Z,0.00
2023-11-25T18:22:23.498Z,0.00
2023-11-25T18:24:52.990Z,0.00
2023-11-25T18:27:22.549Z,0.00
2023-11-25T18:29:52.079Z,0.13
2023-11-25T18:32:23.313Z,0.13
2023-11-25T18:34:52.875Z,0.00
2023-11-25T18:37:22.530Z,0.00
2023-11-25T18:39:52.048Z,0.20
2023-11-25T18:42:21.814Z,0.10
2023-11-25T18:47:09.446Z,0.30
2023-11-25T18:49:38.876Z,1.15
2023-11-25T18:52:08.549Z,0.08
2023-11-25T18:54:37.939Z,0.05
2023-11-25T18:57:08.496Z,0.13
2023-11-25T18:59:38.936Z,0.00
2023-11-25T19:02:10.863Z,0.00
2023-11-25T19:04:40.348Z,0.00
2023-11-25T19:07:10.221Z,0.00
2023-11-25T19:09:39.712Z,0.35
2023-11-25T19:12:11.809Z,0.00
2023-11-25T19:14:41.181Z,0.00
2023-11-25T19:17:12.117Z,0.00
2023-11-25T19:19:41.624Z,0.15
2023-11-25T19:22:12.030Z,0.10
2023-11-25T19:24:41.825Z,0.00
2023-11-25T19:27:11.385Z,0.10
2023-11-25T19:29:43.342Z,0.00
2023-11-25T19:32:14.319Z,0.00
2023-11-25T19:34:43.851Z,0.22
2023-11-25T19:37:13.379Z,0.00
2023-11-25T19:39:43.339Z,0.13
2023-11-25T19:42:13.320Z,0.00
2023-11-25T19:44:42.939Z,0.00
2023-11-25T19:47:13.886Z,0.00
2023-11-25T19:49:43.450Z,0.00
2023-11-25T19:52:12.914Z,0.00
2023-11-25T19:54:42.455Z,0.00
2023-11-25T19:57:14.472Z,0.10
2023-11-25T19:59:44.026Z,0.20
2023-11-25T20:02:15.270Z,0.00
2023-11-25T20:04:44.845Z,1.55
2023-11-25T20:07:15.572Z,0.38
2023-11-25T20:09:45.090Z,0.35
2023-11-25T20:12:14.697Z,0.63
2023-11-25T20:14:44.046Z,1.00
2023-11-25T20:17:15.108Z,0.30
2023-11-25T20:19:49.838Z,0.43
2023-11-25T20:22:21.616Z,0.70
2023-11-25T20:24:51.280Z,0.40
2023-11-25T20:27:21.413Z,0.10
2023-11-25T20:29:50.813Z,0.40
2023-11-25T20:32:22.442Z,0.22
2023-11-25T20:34:51.998Z,0.00
2023-11-25T20:37:21.511Z,0.20
2023-11-25T20:39:51.048Z,0.32
2023-11-25T20:42:21.145Z,0.10
2023-11-25T20:44:50.656Z,1.35
2023-11-25T20:47:21.738Z,0.93
2023-11-25T20:49:51.288Z,0.82
2023-11-25T20:52:22.470Z,0.50
2023-11-25T20:54:51.937Z,1.38
2023-11-25T20:57:22.176Z,1.60
2023-11-25T20:59:53.251Z,2.83
2023-11-25T21:02:24.260Z,2.10
2023-11-25T21:04:54.698Z,2.15
2023-11-25T21:07:24.891Z,1.08
2023-11-25T21:09:54.394Z,1.98
2023-11-25T21:12:23.998Z,1.83
2023-11-25T21:14:53.792Z,2.10
2023-11-25T21:17:25.786Z,1.67
2023-11-25T21:19:55.174Z,0.63
2023-11-25T21:25:12.519Z,2.13
2023-11-25T21:27:42.396Z,0.80
2023-11-25T21:30:13.260Z,0.68
2023-11-25T21:32:44.480Z,1.42
2023-11-25T21:35:14.231Z,2.22
2023-11-25T21:37:44.308Z,1.88
2023-11-25T21:40:22.708Z,1.65
2023-11-25T21:42:53.199Z,0.80
2023-11-25T21:47:09.461Z,2.72
2023-11-25T21:49:42.044Z,3.03
2023-11-25T21:52:11.599Z,2.58
2023-11-25T21:54:41.025Z,1.52
2023-11-25T21:57:10.671Z,4.57
2023-11-25T21:59:40.177Z,4.15
2023-11-25T22:02:11.091Z,2.17
2023-11-25T22:04:41.860Z,2.30
2023-11-25T22:07:11.427Z,1.70
2023-11-25T22:09:41.694Z,1.63
2023-11-25T22:12:11.152Z,2.67
2023-11-25T22:14:40.597Z,2.42
2023-11-25T22:17:11.465Z,1.85
2023-11-25T22:19:42.132Z,2.63
2023-11-25T22:22:12.853Z,1.25
2023-11-25T22:24:42.467Z,2.83
2023-11-25T22:27:23.653Z,1.02
2023-11-25T22:29:53.258Z,0.40
2023-11-25T22:32:24.363Z,1.58
2023-11-25T22:34:53.864Z,45.50
2023-11-25T22:37:23.290Z,0.70
2023-11-25T22:39:52.788Z,3.03
2023-11-25T22:42:23.589Z,0.90
2023-11-25T22:44:53.000Z,0.10
2023-11-25T22:47:24.004Z,0.40
2023-11-25T22:49:53.630Z,0.17
2023-11-25T22:52:22.991Z,0.75
2023-11-25T22:54:52.539Z,0.50
2023-11-25T22:57:22.180Z,0.22
2023-11-25T22:59:54.051Z,0.75
2023-11-25T23:02:25.265Z,1.58
2023-11-25T23:04:54.887Z,3.40
2023-11-25T23:07:24.167Z,14.95
2023-11-25T23:09:53.547Z,0.43
2023-11-25T23:12:23.228Z,21.05
2023-11-25T23:14:52.757Z,0.55
2023-11-25T23:17:23.748Z,0.63
2023-11-25T23:19:53.074Z,0.88
2023-11-25T23:22:22.406Z,0.30
2023-11-25T23:24:51.894Z,0.40
2023-11-25T23:27:21.262Z,2.17
2023-11-25T23:29:50.895Z,1.30
2023-11-25T23:32:20.459Z,0.60
2023-11-25T23:34:51.448Z,1.90
2023-11-25T23:37:20.923Z,1.00
2023-11-25T23:39:50.348Z,0.43
2023-11-25T23:42:19.793Z,0.40
2023-11-25T23:44:49.163Z,0.77
2023-11-25T23:47:18.763Z,0.68
2023-11-25T23:49:49.959Z,0.08
2023-11-25T23:52:19.491Z,0.10
2023-11-25T23:54:48.936Z,0.03
2023-11-25T23:57:20.021Z,0.45
2023-11-25T23:59:49.521Z,0.80
